Strona główna
METAR-TAF:

METAR-TAF

Lotnisko :

Port lotniczy Cuneo-Levaldigi

Cuneo, Włochy

Szerokość geograficzna: 44-32-47N, Długość geograficzna: 007-37-20E, wysokość: 386 m

Aktualna obserwacja pogody

Raport powstał 44 minut temu, godzina 17:50 UTC
Wiatr 3 kt od północny zachód
Temperatura 26°C
Wilgotność 51%
Ciśnienie 1011 hPa
Widzialność 10 km lub więcej
Brak chmur poniżej 1500 m i brak chmur cumulonimbus

METAR: LIMZ 171750Z 31003KT CAVOK 26/15 Q1011

czas: 20:34 (18:34 UTC)

Prognoza

Raport powstał 1 godzina i 34 minut temu, godzina 17:00 UTC
Prognoza ważna od 17 godzina 18 UTC do 18 godzina 18 UTC
Wiatr 5 kt z kierunków zmiennych
Widzialność 10 km lub więcej
Rozproszone chmury na wysokości 4000 ft
Prawdopodobieństwo 30% :
Przejściowo
od 18 godzina 10 UTC do 18 godzina 12 UTC
burza, deszcz

TAF: LIMZ 171700Z 1718/1818 VRB05KT 9999 SCT040 PROB30 TEMPO 1810/1812 TSRA

Obserwacja i prognoza pogody dla ponad 4000 lotnisk (raport METAR i TAF).

Dostępne stacje oznaczono żółtymi i czerwonymi punktami na mapie.

Najedź kursorem aby zobaczyć nazwę stacji.

Kliknij aby zobaczyć obserwacje i prognozy pogody.

Aby zmienić mapę: kliknij na zielony przycisk z czarnym krzyżykiem, aby powiększyć; na zielony przycisk z myślnikiem, aby pomniejszyć; na zielone strzałki, aby przejść do map sąsiednich.


METAR-TAF: